North Little Rock, AR (72120)

6:28 PM CDT on August 31, 2015 (GMT -0500)
Peaceful Valley | | Change Station
CLOSE
Current Station
Personal Weather Station
Location: Sherwood, AR
Elevation: 371 ft
Nearby Weather Stations

Elev 371 ft 34.89 °N, 92.24 °W | Updated 58 seconds ago

Partly Cloudy
Partly Cloudy
88.3 °F
Feels Like 92 °F
N
2.5
Wind Variable Wind from SE
Gusts 5.0 mph

Today
High -- | Low -- °F
--% Chance of Precip.
Yesterday
High -- | Low -- °F
Precip. -- in
6:40 AM 7:37 PM
Waning Gibbous, 93% visible
Pressure 30.00 in
Visibility 10.0 miles
Clouds Clear
Heat Index 92 °F
Dew Point 67 °F
Humidity 50%
Rainfall in
Snow Depth Not available.
UV 1 out of 12
Pollen 9.90 out of 12
Air Quality Not available.
Flu Activity Not available.
METAR KLRF 312258Z AUTO 10005KT 10SM CLR 32/20 A3000 RMK AO2 DZB28E41 SLP159 P0000 T03150201
Pressure 30.00 in
Visibility 10.0 miles
Clouds Clear
Heat Index 92 °F
Dew Point 67 °F
Humidity 50%
Rainfall in
Snow Depth Not available.
UV 1 out of 12
Pollen 9.90 out of 12
Air Quality Not available.
Flu Activity Not available.
METAR KLRF 312258Z AUTO 10005KT 10SM CLR 32/20 A3000 RMK AO2 DZB28E41 SLP159 P0000 T03150201

10-Day Weather Forecast

×

Almanac

Astronomy

Aug. 31, 2015 Rise Set
Actual Time
Civil Twilight
Nautical Twilight
Astronomical Twilight
Moon
Length of Visible Light
Length of Day
Tomorrow will be .
, % of the Moon is Illuminated

Today's Extremes

State Highs State Lows

Community

WunderPhotos

Upload Photos

1,851,392 photos uploaded!

WunderBlogs® & News

Nearby

Air Quality

  Air Quality AQ Index Pollutant
Not available.

Snow Depth

Station Depth Elevation

Earthquake Activity

City Distance Mag. Time & Date
Minimum magnitude displayed is 2.5.

Coastal Water Temperatures

Place Temperature

Stations

Nearby Weather Stations

Station Location Temp. Windchill Dew Point Humidity Wind Precip. Elev Updated Type